Wetterdaten: Woche 25.01.16 - 31.01.16 (KW4)
Datum Zeit Temperatur Luftfeuchte Luftdruck Niederschlag Windrichtung Sonnenschein Solar Wind
25.01.2016 00:00 1,1 C 96 % 1033,6 hPa 0,0 l/m S-SW 0,00 h 0 W/m 1,5 km/h (1 Bft)
25.01.2016 01:00 0,9 C 97 % 1033,4 hPa 0,0 l/m N 0,00 h 0 W/m 0,0 km/h (0 Bft)
25.01.2016 02:00 1,0 C 96 % 1033,3 hPa 0,0 l/m N 0,00 h 0 W/m 0,0 km/h (0 Bft)
25.01.2016 03:00 1,2 C 96 % 1032,6 hPa 0,0 l/m N 0,00 h 0 W/m 0,0 km/h (0 Bft)
25.01.2016 04:00 1,1 C 96 % 1032,0 hPa 0,0 l/m N 0,00 h 0 W/m 0,4 km/h (0 Bft)
25.01.2016 05:00 0,5 C 95 % 1031,8 hPa 0,0 l/m N 0,00 h 0 W/m 0,0 km/h (0 Bft)
25.01.2016 06:00 -0,2 C 95 % 1031,8 hPa 0,0 l/m N 0,00 h 0 W/m 0,0 km/h (0 Bft)
25.01.2016 07:00 -0,6 C 96 % 1031,6 hPa 0,0 l/m S-SW 0,00 h 0 W/m 1,2 km/h (1 Bft)
25.01.2016 08:00 -0,8 C 96 % 1031,6 hPa 0,0 l/m N 0,00 h 17 W/m 0,3 km/h (0 Bft)
25.01.2016 09:00 -0,5 C 97 % 1031,8 hPa 0,0 l/m N 0,00 h 49 W/m 0,0 km/h (0 Bft)
25.01.2016 10:00 0,4 C 98 % 1031,8 hPa 0,0 l/m N 0,75 h 223 W/m 0,4 km/h (0 Bft)
25.01.2016 11:00 2,9 C 98 % 1031,5 hPa 0,0 l/m S-SW 1,00 h 301 W/m 3,2 km/h (1 Bft)
25.01.2016 12:00 7,0 C 77 % 1031,0 hPa 0,0 l/m S-SW 1,00 h 376 W/m 7,1 km/h (2 Bft)
25.01.2016 13:00 8,8 C 69 % 1030,1 hPa 0,0 l/m S-SW 1,00 h 372 W/m 8,3 km/h (2 Bft)
25.01.2016 14:00 9,8 C 65 % 1029,4 hPa 0,0 l/m S-SW 1,00 h 308 W/m 8,6 km/h (2 Bft)
25.01.2016 15:00 9,6 C 68 % 1029,1 hPa 0,0 l/m S-SW 1,00 h 186 W/m 8,0 km/h (2 Bft)
25.01.2016 16:00 7,8 C 76 % 1029,0 hPa 0,0 l/m S-SW 0,17 h 35 W/m 5,6 km/h (1 Bft)
25.01.2016 17:00 5,9 C 80 % 1029,3 hPa 0,0 l/m S-SW 0,00 h 7 W/m 5,2 km/h (1 Bft)
25.01.2016 18:00 4,7 C 85 % 1029,3 hPa 0,0 l/m S-SW 0,00 h 0 W/m 3,9 km/h (1 Bft)
25.01.2016 19:00 4,8 C 82 % 1029,3 hPa 0,0 l/m N 0,00 h 0 W/m 0,0 km/h (0 Bft)
25.01.2016 20:00 2,9 C 85 % 1029,5 hPa 0,0 l/m N 0,00 h 0 W/m 0,0 km/h (0 Bft)
25.01.2016 21:00 1,6 C 89 % 1029,6 hPa 0,0 l/m N 0,00 h 0 W/m 0,0 km/h (0 Bft)
25.01.2016 22:00 0,8 C 91 % 1029,6 hPa 0,0 l/m S-SW 0,00 h 0 W/m 1,1 km/h (0 Bft)
25.01.2016 23:00 0,4 C 93 % 1029,5 hPa 0,0 l/m S-SW 0,00 h 0 W/m 2,4 km/h (1 Bft)
26.01.2016 00:00 0,5 C 95 % 1029,9 hPa 0,0 l/m S-SW 0,00 h 0 W/m 1,7 km/h (1 Bft)
26.01.2016 01:00 0,2 C 94 % 1030,2 hPa 0,0 l/m N 0,00 h 0 W/m 0,0 km/h (0 Bft)
26.01.2016 02:00 -0,4 C 95 % 1030,3 hPa 0,0 l/m N 0,00 h 0 W/m 0,1 km/h (0 Bft)
26.01.2016 03:00 -0,7 C 95 % 1030,4 hPa 0,0 l/m N 0,00 h 0 W/m 0,0 km/h (0 Bft)
26.01.2016 04:00 -0,9 C 96 % 1030,7 hPa 0,0 l/m N 0,00 h 0 W/m 0,0 km/h (0 Bft)
26.01.2016 05:00 -0,8 C 96 % 1030,7 hPa 0,0 l/m N 0,00 h 0 W/m 0,0 km/h (0 Bft)
26.01.2016 06:00 -0,4 C 97 % 1030,5 hPa 0,0 l/m S-SW 0,00 h 0 W/m 0,7 km/h (0 Bft)
26.01.2016 07:00 0,2 C 98 % 1029,8 hPa 0,0 l/m S-SW 0,00 h 0 W/m 6,6 km/h (2 Bft)
26.01.2016 08:00 1,6 C 98 % 1029,5 hPa 0,0 l/m S 0,00 h 13 W/m 6,7 km/h (2 Bft)
26.01.2016 09:00 1,8 C 97 % 1029,5 hPa 0,0 l/m N 0,00 h 50 W/m 0,0 km/h (0 Bft)
26.01.2016 10:00 3,0 C 96 % 1029,4 hPa 0,0 l/m N 0,17 h 142 W/m 0,4 km/h (0 Bft)
26.01.2016 11:00 5,2 C 90 % 1029,2 hPa 0,0 l/m S 0,50 h 204 W/m 2,0 km/h (1 Bft)
26.01.2016 12:00 7,0 C 82 % 1028,9 hPa 0,0 l/m S 1,00 h 381 W/m 10,2 km/h (2 Bft)
26.01.2016 13:00 9,1 C 77 % 1028,1 hPa 0,0 l/m S-SW 1,00 h 370 W/m 14,6 km/h (3 Bft)
26.01.2016 14:00 10,0 C 74 % 1027,6 hPa 0,0 l/m S-SW 1,00 h 304 W/m 14,8 km/h (3 Bft)
26.01.2016 15:00 9,6 C 75 % 1027,4 hPa 0,0 l/m S-SW 1,00 h 181 W/m 13,4 km/h (3 Bft)
26.01.2016 16:00 8,4 C 77 % 1027,3 hPa 0,0 l/m S-SW 0,42 h 46 W/m 9,8 km/h (2 Bft)
26.01.2016 17:00 6,8 C 80 % 1027,2 hPa 0,0 l/m SW 0,00 h 8 W/m 8,6 km/h (2 Bft)
26.01.2016 18:00 7,2 C 77 % 1027,3 hPa 0,0 l/m SW 0,00 h 0 W/m 11,5 km/h (2 Bft)
26.01.2016 19:00 7,1 C 77 % 1027,3 hPa 0,0 l/m SW 0,00 h 0 W/m 4,1 km/h (1 Bft)
26.01.2016 20:00 5,4 C 82 % 1027,2 hPa 0,0 l/m SW 0,00 h 0 W/m 1,1 km/h (0 Bft)
26.01.2016 21:00 3,8 C 86 % 1027,0 hPa 0,0 l/m N 0,00 h 0 W/m 0,0 km/h (0 Bft)
26.01.2016 22:00 2,6 C 89 % 1026,7 hPa 0,0 l/m N 0,00 h 0 W/m 1,1 km/h (0 Bft)
26.01.2016 23:00 2,7 C 91 % 1026,3 hPa 0,0 l/m SW 0,00 h 0 W/m 5,9 km/h (2 Bft)
27.01.2016 00:00 4,6 C 87 % 1026,1 hPa 0,0 l/m SW 0,00 h 0 W/m 13,3 km/h (3 Bft)
27.01.2016 01:00 5,4 C 81 % 1026,0 hPa 0,0 l/m SW 0,00 h 0 W/m 6,8 km/h (2 Bft)
27.01.2016 02:00 3,4 C 85 % 1025,7 hPa 0,0 l/m N 0,00 h 0 W/m 0,0 km/h (0 Bft)
27.01.2016 03:00 1,8 C 89 % 1025,4 hPa 0,0 l/m N 0,00 h 0 W/m 1,3 km/h (1 Bft)
27.01.2016 04:00 0,9 C 91 % 1025,7 hPa 0,0 l/m N 0,00 h 0 W/m 0,7 km/h (0 Bft)
27.01.2016 05:00 0,7 C 93 % 1026,0 hPa 0,0 l/m N 0,00 h 0 W/m 0,4 km/h (0 Bft)
27.01.2016 06:00 1,5 C 95 % 1025,9 hPa 0,0 l/m S-SW 0,00 h 0 W/m 8,7 km/h (2 Bft)
27.01.2016 07:00 2,6 C 94 % 1026,0 hPa 0,0 l/m S-SW 0,00 h 5 W/m 12,6 km/h (3 Bft)
27.01.2016 08:00 2,8 C 93 % 1025,8 hPa 0,0 l/m S-SW 0,00 h 14 W/m 12,4 km/h (3 Bft)
27.01.2016 09:00 5,3 C 90 % 1025,7 hPa 0,0 l/m SW 0,00 h 59 W/m 14,9 km/h (3 Bft)
27.01.2016 10:00 7,7 C 79 % 1025,8 hPa 0,0 l/m SW 0,00 h 112 W/m 12,9 km/h (3 Bft)
27.01.2016 11:00 9,2 C 74 % 1025,6 hPa 0,0 l/m SW 0,58 h 211 W/m 17,2 km/h (3 Bft)
27.01.2016 12:00 10,6 C 73 % 1024,7 hPa 0,0 l/m SW 0,17 h 203 W/m 18,0 km/h (3 Bft)
27.01.2016 13:00 11,4 C 71 % 1024,0 hPa 0,0 l/m W-SW 0,00 h 121 W/m 16,8 km/h (3 Bft)
27.01.2016 14:00 11,2 C 74 % 1023,3 hPa 0,0 l/m SW 0,00 h 92 W/m 12,5 km/h (3 Bft)
27.01.2016 15:00 10,8 C 73 % 1022,9 hPa 0,0 l/m SW 0,00 h 81 W/m 13,3 km/h (3 Bft)
27.01.2016 16:00 9,5 C 79 % 1022,4 hPa 0,0 l/m SW 0,00 h 25 W/m 11,8 km/h (2 Bft)
27.01.2016 17:00 8,9 C 78 % 1022,1 hPa 0,0 l/m SW 0,00 h 5 W/m 13,8 km/h (3 Bft)
27.01.2016 18:00 9,4 C 73 % 1021,9 hPa 0,0 l/m SW 0,00 h 0 W/m 15,6 km/h (3 Bft)
27.01.2016 19:00 9,2 C 74 % 1021,6 hPa 0,0 l/m SW 0,00 h 0 W/m 11,0 km/h (2 Bft)
27.01.2016 20:00 8,3 C 78 % 1021,4 hPa 0,0 l/m SW 0,00 h 0 W/m 10,9 km/h (2 Bft)
27.01.2016 21:00 7,3 C 82 % 1021,2 hPa 0,0 l/m SW 0,00 h 0 W/m 10,1 km/h (2 Bft)
27.01.2016 22:00 6,9 C 83 % 1021,0 hPa 0,0 l/m SW 0,00 h 0 W/m 10,6 km/h (2 Bft)
27.01.2016 23:00 6,7 C 83 % 1020,5 hPa 0,0 l/m SW 0,00 h 0 W/m 12,9 km/h (3 Bft)
28.01.2016 00:00 8,4 C 74 % 1020,5 hPa 0,0 l/m SW 0,00 h 0 W/m 13,8 km/h (3 Bft)
28.01.2016 01:00 9,3 C 70 % 1020,4 hPa 0,0 l/m SW 0,00 h 0 W/m 17,2 km/h (3 Bft)
28.01.2016 02:00 8,4 C 73 % 1020,4 hPa 0,0 l/m SW 0,00 h 0 W/m 15,6 km/h (3 Bft)
28.01.2016 03:00 8,0 C 74 % 1020,7 hPa 0,0 l/m SW 0,00 h 0 W/m 14,8 km/h (3 Bft)
28.01.2016 04:00 6,5 C 78 % 1021,1 hPa 0,0 l/m SW 0,00 h 0 W/m 15,4 km/h (3 Bft)
28.01.2016 05:00 6,2 C 82 % 1021,4 hPa 0,0 l/m SW 0,00 h 0 W/m 18,6 km/h (3 Bft)
28.01.2016 06:00 6,9 C 81 % 1021,7 hPa 0,0 l/m SW 0,00 h 0 W/m 18,9 km/h (3 Bft)
28.01.2016 07:00 7,2 C 80 % 1022,2 hPa 0,0 l/m SW 0,00 h 0 W/m 16,4 km/h (3 Bft)
28.01.2016 08:00 7,7 C 80 % 1022,6 hPa 0,0 l/m SW 0,00 h 10 W/m 16,9 km/h (3 Bft)
28.01.2016 09:00 7,8 C 80 % 1023,2 hPa 0,0 l/m SW 0,00 h 31 W/m 14,5 km/h (3 Bft)
28.01.2016 10:00 8,5 C 79 % 1023,7 hPa 0,0 l/m SW 0,00 h 62 W/m 16,1 km/h (3 Bft)
28.01.2016 11:00 9,6 C 76 % 1024,3 hPa 0,0 l/m W-SW 0,00 h 85 W/m 21,2 km/h (4 Bft)
28.01.2016 12:00 9,8 C 77 % 1024,2 hPa 0,0 l/m W-SW 0,00 h 70 W/m 15,6 km/h (3 Bft)
28.01.2016 13:00 9,5 C 79 % 1024,1 hPa 0,0 l/m W-SW 0,00 h 45 W/m 12,9 km/h (3 Bft)
28.01.2016 14:00 9,2 C 81 % 1024,0 hPa 0,0 l/m W-SW 0,00 h 29 W/m 12,4 km/h (3 Bft)
28.01.2016 15:00 8,9 C 84 % 1024,3 hPa 0,0 l/m W-SW 0,00 h 18 W/m 5,8 km/h (2 Bft)
28.01.2016 16:00 8,6 C 87 % 1024,3 hPa 0,2 l/m N 0,00 h 12 W/m 0,0 km/h (0 Bft)
28.01.2016 17:00 7,9 C 90 % 1024,9 hPa 0,2 l/m N 0,00 h 5 W/m 0,0 km/h (0 Bft)
28.01.2016 18:00 7,2 C 93 % 1025,5 hPa 0,6 l/m N 0,00 h 0 W/m 0,5 km/h (0 Bft)
28.01.2016 19:00 6,7 C 95 % 1025,9 hPa 0,6 l/m N 0,00 h 0 W/m 0,0 km/h (0 Bft)
28.01.2016 20:00 6,4 C 95 % 1026,1 hPa 0,4 l/m N 0,00 h 0 W/m 0,0 km/h (0 Bft)
28.01.2016 21:00 6,2 C 96 % 1025,9 hPa 0,2 l/m N 0,00 h 0 W/m 0,0 km/h (0 Bft)
28.01.2016 22:00 6,0 C 97 % 1025,6 hPa 0,2 l/m N 0,00 h 0 W/m 0,0 km/h (0 Bft)
28.01.2016 23:00 5,8 C 97 % 1025,5 hPa 0,2 l/m N 0,00 h 0 W/m 0,0 km/h (0 Bft)
29.01.2016 00:00 5,9 C 97 % 1025,7 hPa 0,2 l/m W-SW 0,00 h 0 W/m 2,0 km/h (1 Bft)
29.01.2016 01:00 6,1 C 98 % 1025,6 hPa 0,2 l/m W-SW 0,00 h 0 W/m 8,6 km/h (2 Bft)
29.01.2016 02:00 6,1 C 98 % 1025,9 hPa 0,2 l/m W-SW 0,00 h 0 W/m 7,2 km/h (2 Bft)
29.01.2016 03:00 6,5 C 99 % 1026,6 hPa 0,6 l/m W-SW 0,00 h 0 W/m 7,2 km/h (2 Bft)
29.01.2016 04:00 6,6 C 99 % 1027,2 hPa 0,0 l/m W 0,00 h 0 W/m 8,2 km/h (2 Bft)
29.01.2016 05:00 6,0 C 99 % 1027,9 hPa 0,0 l/m N 0,00 h 0 W/m 0,5 km/h (0 Bft)
29.01.2016 06:00 5,5 C 98 % 1028,6 hPa 0,0 l/m N-NW 0,00 h 0 W/m 4,3 km/h (1 Bft)
29.01.2016 07:00 5,3 C 98 % 1029,4 hPa 0,0 l/m N-NW 0,00 h 5 W/m 2,3 km/h (1 Bft)
29.01.2016 08:00 4,8 C 98 % 1029,9 hPa 0,0 l/m N-NW 0,00 h 14 W/m 1,9 km/h (1 Bft)
29.01.2016 09:00 4,5 C 98 % 1029,8 hPa 0,0 l/m NW 0,08 h 79 W/m 2,5 km/h (1 Bft)
29.01.2016 10:00 6,2 C 98 % 1029,7 hPa 0,0 l/m SW 0,33 h 159 W/m 10,9 km/h (2 Bft)
29.01.2016 11:00 7,6 C 92 % 1029,8 hPa 0,0 l/m W-SW 0,75 h 326 W/m 21,3 km/h (4 Bft)
29.01.2016 12:00 8,5 C 87 % 1029,5 hPa 0,0 l/m W 0,92 h 369 W/m 25,9 km/h (4 Bft)
29.01.2016 13:00 9,3 C 83 % 1029,1 hPa 0,0 l/m W-SW 0,75 h 326 W/m 25,1 km/h (4 Bft)
29.01.2016 14:00 9,4 C 82 % 1029,0 hPa 0,0 l/m W-SW 0,83 h 334 W/m 21,2 km/h (4 Bft)
29.01.2016 15:00 9,1 C 82 % 1028,7 hPa 0,0 l/m W-SW 0,17 h 111 W/m 21,0 km/h (4 Bft)
29.01.2016 16:00 8,6 C 82 % 1028,5 hPa 0,0 l/m SW 0,58 h 59 W/m 16,6 km/h (3 Bft)
29.01.2016 17:00 7,5 C 86 % 1028,6 hPa 0,0 l/m SW 0,00 h 8 W/m 11,2 km/h (2 Bft)
29.01.2016 18:00 6,9 C 88 % 1028,6 hPa 0,0 l/m SW 0,00 h 0 W/m 13,2 km/h (3 Bft)
29.01.2016 19:00 7,1 C 87 % 1028,6 hPa 0,0 l/m SW 0,00 h 0 W/m 13,6 km/h (3 Bft)
29.01.2016 20:00 6,4 C 89 % 1028,3 hPa 0,0 l/m W-SW 0,00 h 0 W/m 18,9 km/h (3 Bft)
29.01.2016 21:00 5,0 C 92 % 1028,3 hPa 0,0 l/m SW 0,00 h 0 W/m 8,4 km/h (2 Bft)
29.01.2016 22:00 3,7 C 94 % 1028,0 hPa 0,0 l/m SW 0,00 h 0 W/m 4,0 km/h (1 Bft)
29.01.2016 23:00 2,9 C 95 % 1027,8 hPa 0,0 l/m SW 0,00 h 0 W/m 4,7 km/h (1 Bft)
30.01.2016 00:00 2,6 C 97 % 1027,6 hPa 0,0 l/m SW 0,00 h 0 W/m 11,3 km/h (2 Bft)
30.01.2016 01:00 3,0 C 98 % 1027,3 hPa 0,0 l/m SW 0,00 h 0 W/m 13,3 km/h (3 Bft)
30.01.2016 02:00 3,1 C 97 % 1026,8 hPa 0,0 l/m SW 0,00 h 0 W/m 6,3 km/h (2 Bft)
30.01.2016 03:00 3,5 C 98 % 1025,8 hPa 0,0 l/m SW 0,00 h 0 W/m 8,0 km/h (2 Bft)
30.01.2016 04:00 4,3 C 95 % 1025,0 hPa 0,0 l/m W-SW 0,00 h 0 W/m 20,8 km/h (4 Bft)
30.01.2016 05:00 4,2 C 89 % 1024,2 hPa 0,0 l/m SW 0,00 h 0 W/m 20,4 km/h (4 Bft)
30.01.2016 06:00 3,1 C 91 % 1023,8 hPa 0,0 l/m SW 0,00 h 0 W/m 15,7 km/h (3 Bft)
30.01.2016 07:00 2,4 C 95 % 1023,6 hPa 0,0 l/m SW 0,00 h 6 W/m 14,6 km/h (3 Bft)
30.01.2016 08:00 2,0 C 96 % 1023,4 hPa 0,0 l/m SW 0,08 h 29 W/m 13,4 km/h (3 Bft)
30.01.2016 09:00 3,3 C 97 % 1022,9 hPa 0,0 l/m W-SW 0,50 h 115 W/m 24,7 km/h (4 Bft)
30.01.2016 10:00 6,0 C 87 % 1022,2 hPa 0,0 l/m SW 1,00 h 274 W/m 32,9 km/h (5 Bft)
30.01.2016 11:00 6,9 C 84 % 1020,8 hPa 0,0 l/m SW 1,00 h 331 W/m 32,3 km/h (5 Bft)
30.01.2016 12:00 8,1 C 79 % 1019,1 hPa 0,0 l/m W-SW 0,67 h 262 W/m 33,9 km/h (5 Bft)
30.01.2016 13:00 8,1 C 79 % 1017,5 hPa 0,0 l/m W-SW 0,00 h 119 W/m 27,6 km/h (4 Bft)
30.01.2016 14:00 8,1 C 78 % 1016,3 hPa 0,0 l/m W-SW 0,00 h 99 W/m 23,6 km/h (4 Bft)
30.01.2016 15:00 8,3 C 77 % 1015,2 hPa 0,0 l/m W-SW 0,00 h 56 W/m 25,5 km/h (4 Bft)
30.01.2016 16:00 7,9 C 76 % 1014,3 hPa 0,0 l/m W-SW 0,00 h 18 W/m 31,0 km/h (5 Bft)
30.01.2016 17:00 7,7 C 75 % 1013,9 hPa 0,0 l/m W-SW 0,00 h 0 W/m 28,6 km/h (4 Bft)
30.01.2016 18:00 7,4 C 78 % 1013,8 hPa 0,0 l/m SW 0,00 h 0 W/m 31,0 km/h (5 Bft)
30.01.2016 19:00 6,9 C 85 % 1014,0 hPa 1,2 l/m W-SW 0,00 h 0 W/m 43,3 km/h (6 Bft)
30.01.2016 20:00 5,9 C 92 % 1013,7 hPa 1,6 l/m W-SW 0,00 h 0 W/m 42,7 km/h (6 Bft)
30.01.2016 21:00 6,0 C 94 % 1013,2 hPa 0,8 l/m W 0,00 h 0 W/m 37,5 km/h (5 Bft)
30.01.2016 22:00 6,0 C 93 % 1013,2 hPa 0,4 l/m W 0,00 h 0 W/m 34,2 km/h (5 Bft)
30.01.2016 23:00 5,9 C 94 % 1013,5 hPa 0,8 l/m W 0,00 h 0 W/m 28,4 km/h (4 Bft)
31.01.2016 00:00 4,2 C 93 % 1014,3 hPa 1,4 l/m NW 0,00 h 0 W/m 16,6 km/h (3 Bft)
31.01.2016 01:00 2,8 C 94 % 1014,6 hPa 1,8 l/m NW 0,00 h 0 W/m 9,8 km/h (2 Bft)
31.01.2016 02:00 2,2 C 95 % 1015,1 hPa 2,0 l/m W-NW 0,00 h 0 W/m 10,5 km/h (2 Bft)
31.01.2016 03:00 1,9 C 96 % 1015,5 hPa 1,6 l/m W-NW 0,00 h 0 W/m 9,4 km/h (2 Bft)
31.01.2016 04:00 1,4 C 96 % 1015,4 hPa 1,2 l/m SW 0,00 h 0 W/m 5,0 km/h (1 Bft)
31.01.2016 05:00 1,4 C 97 % 1015,6 hPa 2,0 l/m SW 0,00 h 0 W/m 12,3 km/h (3 Bft)
31.01.2016 06:00 1,6 C 98 % 1015,6 hPa 0,4 l/m W-SW 0,00 h 0 W/m 15,6 km/h (3 Bft)
31.01.2016 07:00 2,0 C 98 % 1015,6 hPa 0,4 l/m W-SW 0,00 h 0 W/m 18,0 km/h (3 Bft)
31.01.2016 08:00 2,3 C 98 % 1015,4 hPa 0,0 l/m W-SW 0,00 h 7 W/m 19,8 km/h (4 Bft)
31.01.2016 09:00 1,7 C 98 % 1015,7 hPa 0,0 l/m SW 0,00 h 15 W/m 23,3 km/h (4 Bft)
31.01.2016 10:00 1,3 C 98 % 1015,4 hPa 0,4 l/m SW 0,00 h 24 W/m 18,5 km/h (3 Bft)
31.01.2016 11:00 1,0 C 98 % 1015,1 hPa 2,0 l/m SW 0,00 h 26 W/m 17,3 km/h (3 Bft)
31.01.2016 12:00 1,5 C 99 % 1014,6 hPa 2,8 l/m SW 0,00 h 36 W/m 12,4 km/h (3 Bft)
31.01.2016 13:00 2,4 C 99 % 1013,7 hPa 1,6 l/m SW 0,00 h 37 W/m 11,1 km/h (2 Bft)
31.01.2016 14:00 2,9 C 99 % 1013,7 hPa 2,6 l/m SW 0,00 h 25 W/m 7,2 km/h (2 Bft)
31.01.2016 15:00 3,3 C 99 % 1012,9 hPa 0,8 l/m SW 0,00 h 26 W/m 11,7 km/h (2 Bft)
31.01.2016 16:00 3,5 C 99 % 1013,3 hPa 0,2 l/m SW 0,00 h 8 W/m 14,2 km/h (3 Bft)
31.01.2016 17:00 3,7 C 99 % 1013,6 hPa 0,2 l/m SW 0,00 h 0 W/m 15,4 km/h (3 Bft)
31.01.2016 18:00 4,5 C 100 % 1014,2 hPa 0,2 l/m SW 0,00 h 0 W/m 17,2 km/h (3 Bft)
31.01.2016 19:00 7,3 C 100 % 1014,4 hPa 0,2 l/m SW 0,00 h 0 W/m 24,5 km/h (4 Bft)
31.01.2016 20:00 8,4 C 100 % 1014,3 hPa 0,2 l/m W-SW 0,00 h 0 W/m 29,0 km/h (5 Bft)
31.01.2016 21:00 9,0 C 99 % 1014,7 hPa 0,0 l/m W 0,00 h 0 W/m 33,1 km/h (5 Bft)
31.01.2016 22:00 9,6 C 98 % 1015,3 hPa 0,0 l/m W 0,00 h 0 W/m 28,6 km/h (4 Bft)
31.01.2016 23:00 9,9 C 97 % 1015,2 hPa 0,0 l/m W-SW 0,00 h 0 W/m 30,4 km/h (5 Bft)
Min-Datum _ 26.01.16 25.01.16 31.01.16 - - - - 25.01.16
_ Min-Zeit 04:30 14:15 15:15 - - - - 00:00
Minimum _ -1,0 C 63 % 1012,8 hPa - - - - 0,0 km/h (0 Bft)
Max-Datum _ 27.01.16 25.01.16 25.01.16 31.01.16 - 25.01.16 30.01.16 30.01.16
_ Max-Zeit 13:50 01:10 00:00 12:00 - 10:15 12:00 19:05
Maximum _ 11,5 C 100 % 1033,9 hPa 2,8 l/m - 0,08 h 497 W/m 64,4 km/h
W-SW (8 Bft)
Durchschnitt _ 5,2 C 89 % 1024,2 hPa #30,6 l/m SW #19:25 h 115 W/m 11,6 km/h (2 Bft)